sensor_id;sensor_type;location;lat;lon;timestamp;temperature;humidity
70214;DHT22;60138;55.808;37.078;2024-03-02T00:00:36;3.91;69.84
70214;DHT22;60138;55.808;37.078;2024-03-02T00:03:02;3.91;69.87
70214;DHT22;60138;55.808;37.078;2024-03-02T00:05:27;3.91;69.92
70214;DHT22;60138;55.808;37.078;2024-03-02T00:10:25;3.91;70.00
70214;DHT22;60138;55.808;37.078;2024-03-02T00:12:51;3.92;69.87
70214;DHT22;60138;55.808;37.078;2024-03-02T00:15:51;3.93;69.97
70214;DHT22;60138;55.808;37.078;2024-03-02T00:20:55;3.95;69.98
70214;DHT22;60138;55.808;37.078;2024-03-02T00:23:21;3.98;69.97
70214;DHT22;60138;55.808;37.078;2024-03-02T00:25:49;3.99;69.95
70214;DHT22;60138;55.808;37.078;2024-03-02T00:28:20;3.99;69.87
70214;DHT22;60138;55.808;37.078;2024-03-02T00:33:22;3.97;69.80
70214;DHT22;60138;55.808;37.078;2024-03-02T00:35:48;3.93;69.79
70214;DHT22;60138;55.808;37.078;2024-03-02T00:38:15;3.88;69.76
70214;DHT22;60138;55.808;37.078;2024-03-02T00:40:45;3.87;69.88
70214;DHT22;60138;55.808;37.078;2024-03-02T00:46:19;3.87;69.98
70214;DHT22;60138;55.808;37.078;2024-03-02T00:48:52;3.88;70.04
70214;DHT22;60138;55.808;37.078;2024-03-02T00:51:18;3.90;70.02
70214;DHT22;60138;55.808;37.078;2024-03-02T00:53:44;3.88;70.01
70214;DHT22;60138;55.808;37.078;2024-03-02T00:56:11;3.86;70.05
70214;DHT22;60138;55.808;37.078;2024-03-02T00:58:37;3.86;70.06
70214;DHT22;60138;55.808;37.078;2024-03-02T01:01:04;3.86;70.11
70214;DHT22;60138;55.808;37.078;2024-03-02T01:03:31;3.86;70.07
70214;DHT22;60138;55.808;37.078;2024-03-02T01:05:57;3.85;70.09
70214;DHT22;60138;55.808;37.078;2024-03-02T01:08:24;3.83;70.11
70214;DHT22;60138;55.808;37.078;2024-03-02T01:10:49;3.84;70.12
70214;DHT22;60138;55.808;37.078;2024-03-02T01:13:15;3.86;70.17
70214;DHT22;60138;55.808;37.078;2024-03-02T01:15:41;3.87;70.19
70214;DHT22;60138;55.808;37.078;2024-03-02T01:18:07;3.87;70.15
70214;DHT22;60138;55.808;37.078;2024-03-02T01:20:32;3.84;70.10
70214;DHT22;60138;55.808;37.078;2024-03-02T01:22:58;3.82;70.04
70214;DHT22;60138;55.808;37.078;2024-03-02T01:25:24;3.80;70.17
70214;DHT22;60138;55.808;37.078;2024-03-02T01:27:49;3.80;70.22
70214;DHT22;60138;55.808;37.078;2024-03-02T01:30:15;3.78;70.26
70214;DHT22;60138;55.808;37.078;2024-03-02T01:32:41;3.76;70.28
70214;DHT22;60138;55.808;37.078;2024-03-02T01:35:07;3.76;70.35
70214;DHT22;60138;55.808;37.078;2024-03-02T01:37:33;3.77;70.48
70214;DHT22;60138;55.808;37.078;2024-03-02T01:39:58;3.79;70.52
70214;DHT22;60138;55.808;37.078;2024-03-02T01:42:24;3.80;70.54
70214;DHT22;60138;55.808;37.078;2024-03-02T01:44:51;3.84;70.53
70214;DHT22;60138;55.808;37.078;2024-03-02T01:47:16;3.86;70.50
70214;DHT22;60138;55.808;37.078;2024-03-02T01:49:42;3.87;70.45
70214;DHT22;60138;55.808;37.078;2024-03-02T01:52:08;3.86;70.42
70214;DHT22;60138;55.808;37.078;2024-03-02T01:54:34;3.85;70.44
70214;DHT22;60138;55.808;37.078;2024-03-02T01:56:59;3.83;70.37
70214;DHT22;60138;55.808;37.078;2024-03-02T01:59:25;3.77;70.19
70214;DHT22;60138;55.808;37.078;2024-03-02T02:01:51;3.70;70.20
70214;DHT22;60138;55.808;37.078;2024-03-02T02:04:17;3.68;70.37
70214;DHT22;60138;55.808;37.078;2024-03-02T02:06:46;3.69;70.42
70214;DHT22;60138;55.808;37.078;2024-03-02T02:09:12;3.70;70.45
70214;DHT22;60138;55.808;37.078;2024-03-02T02:11:37;3.72;70.52
70214;DHT22;60138;55.808;37.078;2024-03-02T02:14:04;3.74;70.55
70214;DHT22;60138;55.808;37.078;2024-03-02T02:16:29;3.75;70.59
70214;DHT22;60138;55.808;37.078;2024-03-02T02:18:55;3.76;70.58
70214;DHT22;60138;55.808;37.078;2024-03-02T02:21:24;3.75;70.50
70214;DHT22;60138;55.808;37.078;2024-03-02T02:23:49;3.70;70.37
70214;DHT22;60138;55.808;37.078;2024-03-02T02:26:15;3.63;70.45
70214;DHT22;60138;55.808;37.078;2024-03-02T02:28:41;3.64;70.68
70214;DHT22;60138;55.808;37.078;2024-03-02T02:31:07;3.68;70.72
70214;DHT22;60138;55.808;37.078;2024-03-02T02:33:33;3.70;70.63
70214;DHT22;60138;55.808;37.078;2024-03-02T02:35:58;3.71;70.65
70214;DHT22;60138;55.808;37.078;2024-03-02T02:38:24;3.72;70.69
70214;DHT22;60138;55.808;37.078;2024-03-02T02:40:50;3.73;70.68
70214;DHT22;60138;55.808;37.078;2024-03-02T02:43:15;3.72;70.64
70214;DHT22;60138;55.808;37.078;2024-03-02T02:45:41;3.72;70.71
70214;DHT22;60138;55.808;37.078;2024-03-02T02:48:07;3.74;70.73
70214;DHT22;60138;55.808;37.078;2024-03-02T02:50:32;3.76;70.74
70214;DHT22;60138;55.808;37.078;2024-03-02T02:52:58;3.74;70.68
70214;DHT22;60138;55.808;37.078;2024-03-02T02:55:24;3.73;70.68
70214;DHT22;60138;55.808;37.078;2024-03-02T02:57:49;3.72;70.71
70214;DHT22;60138;55.808;37.078;2024-03-02T03:00:16;3.72;70.71
70214;DHT22;60138;55.808;37.078;2024-03-02T03:02:42;3.72;70.71
70214;DHT22;60138;55.808;37.078;2024-03-02T03:05:10;3.73;70.71
70214;DHT22;60138;55.808;37.078;2024-03-02T03:07:36;3.70;70.67
70214;DHT22;60138;55.808;37.078;2024-03-02T03:10:03;3.68;70.74
70214;DHT22;60138;55.808;37.078;2024-03-02T03:12:30;3.65;70.76
70214;DHT22;60138;55.808;37.078;2024-03-02T03:14:56;3.65;70.75
70214;DHT22;60138;55.808;37.078;2024-03-02T03:17:21;3.65;70.78
70214;DHT22;60138;55.808;37.078;2024-03-02T03:19:47;3.62;70.71
70214;DHT22;60138;55.808;37.078;2024-03-02T03:22:13;3.60;70.69
70214;DHT22;60138;55.808;37.078;2024-03-02T03:24:38;3.58;70.78
70214;DHT22;60138;55.808;37.078;2024-03-02T03:27:04;3.61;70.87
70214;DHT22;60138;55.808;37.078;2024-03-02T03:29:30;3.60;70.87
70214;DHT22;60138;55.808;37.078;2024-03-02T03:31:56;3.60;70.90
70214;DHT22;60138;55.808;37.078;2024-03-02T03:34:21;3.60;70.90
70214;DHT22;60138;55.808;37.078;2024-03-02T03:36:47;3.59;70.92
70214;DHT22;60138;55.808;37.078;2024-03-02T03:39:13;3.57;70.92
70214;DHT22;60138;55.808;37.078;2024-03-02T03:41:40;3.53;70.96
70214;DHT22;60138;55.808;37.078;2024-03-02T03:44:06;3.49;71.06
70214;DHT22;60138;55.808;37.078;2024-03-02T03:46:31;3.49;71.10
70214;DHT22;60138;55.808;37.078;2024-03-02T03:48:57;3.50;71.15
70214;DHT22;60138;55.808;37.078;2024-03-02T03:51:23;3.48;71.15
70214;DHT22;60138;55.808;37.078;2024-03-02T03:53:48;3.47;71.16
70214;DHT22;60138;55.808;37.078;2024-03-02T03:56:14;3.48;71.19
70214;DHT22;60138;55.808;37.078;2024-03-02T03:58:40;3.47;71.18
70214;DHT22;60138;55.808;37.078;2024-03-02T04:01:07;3.47;71.17
70214;DHT22;60138;55.808;37.078;2024-03-02T04:03:33;3.47;71.17
70214;DHT22;60138;55.808;37.078;2024-03-02T04:05:58;3.48;71.25
70214;DHT22;60138;55.808;37.078;2024-03-02T04:08:24;3.49;71.26
70214;DHT22;60138;55.808;37.078;2024-03-02T04:10:50;3.53;71.24
70214;DHT22;60138;55.808;37.078;2024-03-02T04:13:16;3.52;71.23
70214;DHT22;60138;55.808;37.078;2024-03-02T04:15:42;3.52;71.26
70214;DHT22;60138;55.808;37.078;2024-03-02T04:18:07;3.53;71.26
70214;DHT22;60138;55.808;37.078;2024-03-02T04:20:33;3.53;71.28
70214;DHT22;60138;55.808;37.078;2024-03-02T04:22:59;3.53;71.29
70214;DHT22;60138;55.808;37.078;2024-03-02T04:25:24;3.55;71.31
70214;DHT22;60138;55.808;37.078;2024-03-02T04:27:50;3.55;71.32
70214;DHT22;60138;55.808;37.078;2024-03-02T04:30:16;3.56;71.32
70214;DHT22;60138;55.808;37.078;2024-03-02T04:32:41;3.55;71.29
70214;DHT22;60138;55.808;37.078;2024-03-02T04:35:07;3.54;71.28
70214;DHT22;60138;55.808;37.078;2024-03-02T04:37:34;3.55;71.32
70214;DHT22;60138;55.808;37.078;2024-03-02T04:40:00;3.56;71.38
70214;DHT22;60138;55.808;37.078;2024-03-02T04:42:25;3.58;71.38
70214;DHT22;60138;55.808;37.078;2024-03-02T04:44:51;3.58;71.32
70214;DHT22;60138;55.808;37.078;2024-03-02T04:47:17;3.56;71.30
70214;DHT22;60138;55.808;37.078;2024-03-02T04:49:43;3.56;71.27
70214;DHT22;60138;55.808;37.078;2024-03-02T04:52:09;3.56;71.34
70214;DHT22;60138;55.808;37.078;2024-03-02T04:54:35;3.59;71.39
70214;DHT22;60138;55.808;37.078;2024-03-02T04:57:00;3.60;71.42
70214;DHT22;60138;55.808;37.078;2024-03-02T04:59:26;3.62;71.41
70214;DHT22;60138;55.808;37.078;2024-03-02T05:01:52;3.67;71.43
70214;DHT22;60138;55.808;37.078;2024-03-02T05:04:17;3.67;71.35
70214;DHT22;60138;55.808;37.078;2024-03-02T05:06:43;3.68;71.35
70214;DHT22;60138;55.808;37.078;2024-03-02T05:09:09;3.70;71.37
70214;DHT22;60138;55.808;37.078;2024-03-02T05:11:35;3.71;71.35
70214;DHT22;60138;55.808;37.078;2024-03-02T05:14:01;3.72;71.37
70214;DHT22;60138;55.808;37.078;2024-03-02T05:16:26;3.73;71.35
70214;DHT22;60138;55.808;37.078;2024-03-02T05:18:52;3.73;71.35
70214;DHT22;60138;55.808;37.078;2024-03-02T05:21:18;3.74;71.35
70214;DHT22;60138;55.808;37.078;2024-03-02T05:23:44;3.74;71.26
70214;DHT22;60138;55.808;37.078;2024-03-02T05:26:10;3.73;71.29
70214;DHT22;60138;55.808;37.078;2024-03-02T05:28:36;3.73;71.32
70214;DHT22;60138;55.808;37.078;2024-03-02T05:31:02;3.74;71.31
70214;DHT22;60138;55.808;37.078;2024-03-02T05:33:28;3.76;71.28
70214;DHT22;60138;55.808;37.078;2024-03-02T05:35:54;3.78;71.33
70214;DHT22;60138;55.808;37.078;2024-03-02T05:38:19;3.80;71.30
70214;DHT22;60138;55.808;37.078;2024-03-02T05:40:45;3.84;71.30
70214;DHT22;60138;55.808;37.078;2024-03-02T05:43:11;3.87;71.26
70214;DHT22;60138;55.808;37.078;2024-03-02T05:45:36;3.90;71.22
70214;DHT22;60138;55.808;37.078;2024-03-02T05:48:02;3.91;71.16
70214;DHT22;60138;55.808;37.078;2024-03-02T05:50:28;3.94;71.10
70214;DHT22;60138;55.808;37.078;2024-03-02T05:52:53;3.98;71.09
70214;DHT22;60138;55.808;37.078;2024-03-02T05:55:19;4.01;71.00
70214;DHT22;60138;55.808;37.078;2024-03-02T05:57:45;4.04;71.01
70214;DHT22;60138;55.808;37.078;2024-03-02T06:00:11;4.06;70.93
70214;DHT22;60138;55.808;37.078;2024-03-02T06:02:42;4.08;70.93
70214;DHT22;60138;55.808;37.078;2024-03-02T06:05:08;4.12;70.87
70214;DHT22;60138;55.808;37.078;2024-03-02T06:07:33;4.13;70.84
70214;DHT22;60138;55.808;37.078;2024-03-02T06:09:59;4.13;70.84
70214;DHT22;60138;55.808;37.078;2024-03-02T06:12:25;4.16;70.72
70214;DHT22;60138;55.808;37.078;2024-03-02T06:14:51;4.17;70.69
70214;DHT22;60138;55.808;37.078;2024-03-02T06:17:16;4.19;70.59
70214;DHT22;60138;55.808;37.078;2024-03-02T06:19:42;4.18;70.55
70214;DHT22;60138;55.808;37.078;2024-03-02T06:22:08;4.24;70.57
70214;DHT22;60138;55.808;37.078;2024-03-02T06:24:34;4.23;70.37
70214;DHT22;60138;55.808;37.078;2024-03-02T06:27:01;4.27;70.43
70214;DHT22;60138;55.808;37.078;2024-03-02T06:29:26;4.32;70.32
70214;DHT22;60138;55.808;37.078;2024-03-02T06:31:52;4.34;70.23
70214;DHT22;60138;55.808;37.078;2024-03-02T06:34:18;4.37;70.17
70214;DHT22;60138;55.808;37.078;2024-03-02T06:36:43;4.43;70.12
70214;DHT22;60138;55.808;37.078;2024-03-02T06:39:09;4.46;69.96
70214;DHT22;60138;55.808;37.078;2024-03-02T06:41:35;4.47;69.81
70214;DHT22;60138;55.808;37.078;2024-03-02T06:44:01;4.50;69.74
70214;DHT22;60138;55.808;37.078;2024-03-02T06:46:26;4.52;69.66
70214;DHT22;60138;55.808;37.078;2024-03-02T06:48:52;4.59;69.67
70214;DHT22;60138;55.808;37.078;2024-03-02T06:51:18;4.64;69.50
70214;DHT22;60138;55.808;37.078;2024-03-02T06:53:43;4.68;69.38
70214;DHT22;60138;55.808;37.078;2024-03-02T06:56:09;4.73;69.17
70214;DHT22;60138;55.808;37.078;2024-03-02T06:58:35;4.76;69.17
70214;DHT22;60138;55.808;37.078;2024-03-02T07:01:00;4.82;69.03
70214;DHT22;60138;55.808;37.078;2024-03-02T07:03:26;4.86;68.84
70214;DHT22;60138;55.808;37.078;2024-03-02T07:05:52;4.89;68.79
70214;DHT22;60138;55.808;37.078;2024-03-02T07:08:18;4.91;68.72
70214;DHT22;60138;55.808;37.078;2024-03-02T07:10:43;4.94;68.75
70214;DHT22;60138;55.808;37.078;2024-03-02T07:13:09;5.01;68.42
70214;DHT22;60138;55.808;37.078;2024-03-02T07:15:35;5.04;68.21
70214;DHT22;60138;55.808;37.078;2024-03-02T07:18:00;5.05;67.91
70214;DHT22;60138;55.808;37.078;2024-03-02T07:20:26;5.06;67.79
70214;DHT22;60138;55.808;37.078;2024-03-02T07:22:52;5.09;67.77
70214;DHT22;60138;55.808;37.078;2024-03-02T07:25:18;5.15;67.66
70214;DHT22;60138;55.808;37.078;2024-03-02T07:27:44;5.16;67.68
70214;DHT22;60138;55.808;37.078;2024-03-02T07:30:13;5.22;67.43
70214;DHT22;60138;55.808;37.078;2024-03-02T07:32:39;5.25;67.07
70214;DHT22;60138;55.808;37.078;2024-03-02T07:35:05;5.28;67.15
70214;DHT22;60138;55.808;37.078;2024-03-02T07:37:31;5.36;67.25
70214;DHT22;60138;55.808;37.078;2024-03-02T07:39:58;5.43;66.49
70214;DHT22;60138;55.808;37.078;2024-03-02T07:42:23;5.48;66.63
70214;DHT22;60138;55.808;37.078;2024-03-02T07:44:49;5.51;66.37
70214;DHT22;60138;55.808;37.078;2024-03-02T07:47:15;5.60;66.01
70214;DHT22;60138;55.808;37.078;2024-03-02T07:49:41;5.66;66.01
70214;DHT22;60138;55.808;37.078;2024-03-02T07:52:06;5.71;65.68
70214;DHT22;60138;55.808;37.078;2024-03-02T07:54:32;5.80;66.09
70214;DHT22;60138;55.808;37.078;2024-03-02T07:56:58;5.92;66.05
70214;DHT22;60138;55.808;37.078;2024-03-02T07:59:23;6.00;65.69
70214;DHT22;60138;55.808;37.078;2024-03-02T08:01:49;6.10;65.97
70214;DHT22;60138;55.808;37.078;2024-03-02T08:04:15;6.16;65.42
70214;DHT22;60138;55.808;37.078;2024-03-02T08:06:41;6.25;65.32
70214;DHT22;60138;55.808;37.078;2024-03-02T08:09:07;6.30;64.78
70214;DHT22;60138;55.808;37.078;2024-03-02T08:11:33;6.33;64.62
70214;DHT22;60138;55.808;37.078;2024-03-02T08:13:59;6.36;64.65
70214;DHT22;60138;55.808;37.078;2024-03-02T08:16:24;6.44;64.93
70214;DHT22;60138;55.808;37.078;2024-03-02T08:18:50;6.55;64.54
70214;DHT22;60138;55.808;37.078;2024-03-02T08:21:17;6.65;63.61
70214;DHT22;60138;55.808;37.078;2024-03-02T08:23:43;6.70;64.19
70214;DHT22;60138;55.808;37.078;2024-03-02T08:26:09;6.83;64.18
70214;DHT22;60138;55.808;37.078;2024-03-02T08:28:35;7.00;63.73
70214;DHT22;60138;55.808;37.078;2024-03-02T08:31:01;7.13;62.73
70214;DHT22;60138;55.808;37.078;2024-03-02T08:33:27;7.23;62.67
70214;DHT22;60138;55.808;37.078;2024-03-02T08:35:53;7.31;61.97
70214;DHT22;60138;55.808;37.078;2024-03-02T08:38:18;7.39;63.05
70214;DHT22;60138;55.808;37.078;2024-03-02T08:40:44;7.43;62.22
70214;DHT22;60138;55.808;37.078;2024-03-02T08:43:10;7.50;62.73
70214;DHT22;60138;55.808;37.078;2024-03-02T08:45:37;7.58;61.49
70214;DHT22;60138;55.808;37.078;2024-03-02T08:48:03;7.58;62.44
70214;DHT22;60138;55.808;37.078;2024-03-02T08:50:29;7.65;61.44
70214;DHT22;60138;55.808;37.078;2024-03-02T08:52:54;7.67;62.18
70214;DHT22;60138;55.808;37.078;2024-03-02T08:55:20;7.58;60.70
70214;DHT22;60138;55.808;37.078;2024-03-02T08:57:46;7.61;60.80
70214;DHT22;60138;55.808;37.078;2024-03-02T09:00:12;7.64;60.86
70214;DHT22;60138;55.808;37.078;2024-03-02T09:02:38;7.64;61.13
70214;DHT22;60138;55.808;37.078;2024-03-02T09:05:04;7.67;61.32
70214;DHT22;60138;55.808;37.078;2024-03-02T09:07:30;7.74;62.08
70214;DHT22;60138;55.808;37.078;2024-03-02T09:09:56;7.73;60.65
70214;DHT22;60138;55.808;37.078;2024-03-02T09:12:21;7.79;61.64
70214;DHT22;60138;55.808;37.078;2024-03-02T09:14:51;7.90;61.22
70214;DHT22;60138;55.808;37.078;2024-03-02T09:17:17;7.96;60.06
70214;DHT22;60138;55.808;37.078;2024-03-02T09:19:42;8.03;59.86
70214;DHT22;60138;55.808;37.078;2024-03-02T09:22:08;8.01;61.17
70214;DHT22;60138;55.808;37.078;2024-03-02T09:24:34;8.06;60.64
70214;DHT22;60138;55.808;37.078;2024-03-02T09:27:00;8.08;61.05
70214;DHT22;60138;55.808;37.078;2024-03-02T09:29:25;8.05;61.34
70214;DHT22;60138;55.808;37.078;2024-03-02T09:31:51;7.97;61.66
70214;DHT22;60138;55.808;37.078;2024-03-02T09:34:17;8.04;58.75
70214;DHT22;60138;55.808;37.078;2024-03-02T09:36:43;8.14;59.25
70214;DHT22;60138;55.808;37.078;2024-03-02T09:39:09;8.12;60.41
70214;DHT22;60138;55.808;37.078;2024-03-02T09:41:38;8.04;59.67
70214;DHT22;60138;55.808;37.078;2024-03-02T09:44:05;7.94;59.76
70214;DHT22;60138;55.808;37.078;2024-03-02T09:46:31;7.84;59.88
70214;DHT22;60138;55.808;37.078;2024-03-02T09:48:56;7.88;60.58
70214;DHT22;60138;55.808;37.078;2024-03-02T09:51:23;8.01;60.56
70214;DHT22;60138;55.808;37.078;2024-03-02T09:53:49;8.09;59.99
70214;DHT22;60138;55.808;37.078;2024-03-02T09:56:15;8.17;59.95
70214;DHT22;60138;55.808;37.078;2024-03-02T09:58:41;8.23;57.85
70214;DHT22;60138;55.808;37.078;2024-03-02T10:01:07;8.24;59.09
70214;DHT22;60138;55.808;37.078;2024-03-02T10:03:33;8.24;59.72
70214;DHT22;60138;55.808;37.078;2024-03-02T10:08:44;8.24;59.61
70214;DHT22;60138;55.808;37.078;2024-03-02T10:11:09;8.28;59.54
70214;DHT22;60138;55.808;37.078;2024-03-02T10:13:35;8.29;59.59
70214;DHT22;60138;55.808;37.078;2024-03-02T10:16:11;8.34;58.68
70214;DHT22;60138;55.808;37.078;2024-03-02T10:18:37;8.36;59.03
70214;DHT22;60138;55.808;37.078;2024-03-02T10:21:13;8.34;58.60
70214;DHT22;60138;55.808;37.078;2024-03-02T10:23:39;8.30;58.27
70214;DHT22;60138;55.808;37.078;2024-03-02T10:26:16;8.21;59.10
70214;DHT22;60138;55.808;37.078;2024-03-02T10:28:48;8.11;57.96
70214;DHT22;60138;55.808;37.078;2024-03-02T10:31:14;7.94;57.73
70214;DHT22;60138;55.808;37.078;2024-03-02T10:33:40;7.85;58.53
70214;DHT22;60138;55.808;37.078;2024-03-02T10:36:06;7.81;58.64
70214;DHT22;60138;55.808;37.078;2024-03-02T10:38:33;7.72;58.93
70214;DHT22;60138;55.808;37.078;2024-03-02T10:40:59;7.74;59.70
70214;DHT22;60138;55.808;37.078;2024-03-02T10:43:25;7.74;58.77
70214;DHT22;60138;55.808;37.078;2024-03-02T10:45:52;7.76;58.38
70214;DHT22;60138;55.808;37.078;2024-03-02T10:48:18;7.82;58.72
70214;DHT22;60138;55.808;37.078;2024-03-02T10:50:45;7.85;59.80
70214;DHT22;60138;55.808;37.078;2024-03-02T10:53:10;7.91;58.32
70214;DHT22;60138;55.808;37.078;2024-03-02T10:55:36;7.93;58.61
70214;DHT22;60138;55.808;37.078;2024-03-02T10:58:04;8.03;57.74
70214;DHT22;60138;55.808;37.078;2024-03-02T11:00:33;8.15;59.35
70214;DHT22;60138;55.808;37.078;2024-03-02T11:03:05;8.24;57.82
70214;DHT22;60138;55.808;37.078;2024-03-02T11:05:37;8.30;57.67
70214;DHT22;60138;55.808;37.078;2024-03-02T11:08:08;8.42;58.74
70214;DHT22;60138;55.808;37.078;2024-03-02T11:10:43;8.49;57.84
70214;DHT22;60138;55.808;37.078;2024-03-02T11:13:12;8.60;58.01
70214;DHT22;60138;55.808;37.078;2024-03-02T11:15:40;8.62;57.78
70214;DHT22;60138;55.808;37.078;2024-03-02T11:18:10;8.66;56.58
70214;DHT22;60138;55.808;37.078;2024-03-02T11:20:37;8.67;56.06
70214;DHT22;60138;55.808;37.078;2024-03-02T11:23:07;8.64;55.27
70214;DHT22;60138;55.808;37.078;2024-03-02T11:25:34;8.66;56.87
70214;DHT22;60138;55.808;37.078;2024-03-02T11:28:02;8.66;56.31
70214;DHT22;60138;55.808;37.078;2024-03-02T11:33:07;8.61;58.26
70214;DHT22;60138;55.808;37.078;2024-03-02T11:35:37;8.57;57.74
70214;DHT22;60138;55.808;37.078;2024-03-02T11:38:03;8.52;57.35
70214;DHT22;60138;55.808;37.078;2024-03-02T11:40:29;8.47;57.12
70214;DHT22;60138;55.808;37.078;2024-03-02T11:42:56;8.46;58.55
70214;DHT22;60138;55.808;37.078;2024-03-02T11:45:26;8.46;56.78
70214;DHT22;60138;55.808;37.078;2024-03-02T11:47:57;8.47;58.16
70214;DHT22;60138;55.808;37.078;2024-03-02T11:50:39;8.52;57.66
70214;DHT22;60138;55.808;37.078;2024-03-02T11:53:07;8.55;57.64
70214;DHT22;60138;55.808;37.078;2024-03-02T11:55:37;8.62;55.93
70214;DHT22;60138;55.808;37.078;2024-03-02T11:58:04;8.67;57.74
70214;DHT22;60138;55.808;37.078;2024-03-02T12:00:30;8.86;56.68
70214;DHT22;60138;55.808;37.078;2024-03-02T12:03:09;9.10;54.88
70214;DHT22;60138;55.808;37.078;2024-03-02T12:05:37;9.37;56.55
70214;DHT22;60138;55.808;37.078;2024-03-02T12:08:07;9.94;55.67
70214;DHT22;60138;55.808;37.078;2024-03-02T12:10:34;10.53;54.23
70214;DHT22;60138;55.808;37.078;2024-03-02T12:13:04;11.09;54.65
70214;DHT22;60138;55.808;37.078;2024-03-02T12:15:32;11.26;51.45
70214;DHT22;60138;55.808;37.078;2024-03-02T12:17:59;11.26;49.83
70214;DHT22;60138;55.808;37.078;2024-03-02T12:20:30;10.81;49.70
70214;DHT22;60138;55.808;37.078;2024-03-02T12:22:58;10.38;53.65
70214;DHT22;60138;55.808;37.078;2024-03-02T12:25:25;9.93;53.25
70214;DHT22;60138;55.808;37.078;2024-03-02T12:27:54;9.53;53.49
70214;DHT22;60138;55.808;37.078;2024-03-02T12:30:20;9.26;54.10
70214;DHT22;60138;55.808;37.078;2024-03-02T12:32:47;9.02;53.74
70214;DHT22;60138;55.808;37.078;2024-03-02T12:35:13;8.83;55.37
70214;DHT22;60138;55.808;37.078;2024-03-02T12:37:49;8.73;55.92
70214;DHT22;60138;55.808;37.078;2024-03-02T12:40:16;8.60;55.70
70214;DHT22;60138;55.808;37.078;2024-03-02T12:42:42;8.53;57.06
70214;DHT22;60138;55.808;37.078;2024-03-02T12:45:08;8.44;56.85
70214;DHT22;60138;55.808;37.078;2024-03-02T12:47:35;8.37;55.84
70214;DHT22;60138;55.808;37.078;2024-03-02T12:50:01;8.31;55.80
70214;DHT22;60138;55.808;37.078;2024-03-02T12:52:30;8.26;56.71
70214;DHT22;60138;55.808;37.078;2024-03-02T12:54:56;8.19;56.29
70214;DHT22;60138;55.808;37.078;2024-03-02T12:57:25;8.11;56.74
70214;DHT22;60138;55.808;37.078;2024-03-02T12:59:51;8.11;57.13
70214;DHT22;60138;55.808;37.078;2024-03-02T13:02:18;8.06;57.09
70214;DHT22;60138;55.808;37.078;2024-03-02T13:04:44;8.00;56.93
70214;DHT22;60138;55.808;37.078;2024-03-02T13:07:10;8.04;56.69
70214;DHT22;60138;55.808;37.078;2024-03-02T13:09:37;8.08;57.00
70214;DHT22;60138;55.808;37.078;2024-03-02T13:12:03;8.09;55.97
70214;DHT22;60138;55.808;37.078;2024-03-02T13:14:29;8.04;56.28
70214;DHT22;60138;55.808;37.078;2024-03-02T13:16:57;8.01;56.61
70214;DHT22;60138;55.808;37.078;2024-03-02T13:19:23;7.94;55.55
70214;DHT22;60138;55.808;37.078;2024-03-02T13:21:49;7.91;57.58
70214;DHT22;60138;55.808;37.078;2024-03-02T13:24:14;7.81;57.23
70214;DHT22;60138;55.808;37.078;2024-03-02T13:26:40;7.71;58.19
70214;DHT22;60138;55.808;37.078;2024-03-02T13:29:06;7.55;58.34
70214;DHT22;60138;55.808;37.078;2024-03-02T13:31:32;7.38;57.19
70214;DHT22;60138;55.808;37.078;2024-03-02T13:33:57;7.23;58.58
70214;DHT22;60138;55.808;37.078;2024-03-02T13:36:23;7.10;58.31
70214;DHT22;60138;55.808;37.078;2024-03-02T13:38:49;7.02;58.56
70214;DHT22;60138;55.808;37.078;2024-03-02T13:41:14;7.00;58.86
70214;DHT22;60138;55.808;37.078;2024-03-02T13:43:40;6.93;57.96
70214;DHT22;60138;55.808;37.078;2024-03-02T13:46:06;6.84;58.81
70214;DHT22;60138;55.808;37.078;2024-03-02T13:48:32;6.75;59.65
70214;DHT22;60138;55.808;37.078;2024-03-02T13:50:58;6.72;59.34
70214;DHT22;60138;55.808;37.078;2024-03-02T13:53:24;6.65;59.37
70214;DHT22;60138;55.808;37.078;2024-03-02T13:55:49;6.61;59.82
70214;DHT22;60138;55.808;37.078;2024-03-02T13:58:15;6.54;59.23
70214;DHT22;60138;55.808;37.078;2024-03-02T14:00:41;6.46;59.77
70214;DHT22;60138;55.808;37.078;2024-03-02T14:03:09;6.39;59.74
70214;DHT22;60138;55.808;37.078;2024-03-02T14:05:35;6.30;59.29
70214;DHT22;60138;55.808;37.078;2024-03-02T14:08:00;6.17;59.15
70214;DHT22;60138;55.808;37.078;2024-03-02T14:10:26;6.08;59.91
70214;DHT22;60138;55.808;37.078;2024-03-02T14:12:52;6.00;60.18
70214;DHT22;60138;55.808;37.078;2024-03-02T14:15:18;5.98;60.50
70214;DHT22;60138;55.808;37.078;2024-03-02T14:17:44;5.95;60.59
70214;DHT22;60138;55.808;37.078;2024-03-02T14:20:10;5.91;60.78
70214;DHT22;60138;55.808;37.078;2024-03-02T14:22:36;5.85;60.90
70214;DHT22;60138;55.808;37.078;2024-03-02T14:25:01;5.82;61.02
70214;DHT22;60138;55.808;37.078;2024-03-02T14:27:28;5.77;61.16
70214;DHT22;60138;55.808;37.078;2024-03-02T14:29:54;5.70;61.20
70214;DHT22;60138;55.808;37.078;2024-03-02T14:32:19;5.64;61.30
70214;DHT22;60138;55.808;37.078;2024-03-02T14:34:45;5.56;61.19
70214;DHT22;60138;55.808;37.078;2024-03-02T14:37:11;5.52;61.24
70214;DHT22;60138;55.808;37.078;2024-03-02T14:39:37;5.49;61.14
70214;DHT22;60138;55.808;37.078;2024-03-02T14:42:02;5.39;61.09
70214;DHT22;60138;55.808;37.078;2024-03-02T14:44:28;5.36;61.22
70214;DHT22;60138;55.808;37.078;2024-03-02T14:46:54;5.31;61.16
70214;DHT22;60138;55.808;37.078;2024-03-02T14:49:20;5.26;61.54
70214;DHT22;60138;55.808;37.078;2024-03-02T14:51:46;5.22;61.72
70214;DHT22;60138;55.808;37.078;2024-03-02T14:54:11;5.20;62.14
70214;DHT22;60138;55.808;37.078;2024-03-02T14:56:37;5.16;62.01
70214;DHT22;60138;55.808;37.078;2024-03-02T14:59:03;5.08;61.63
70214;DHT22;60138;55.808;37.078;2024-03-02T15:01:30;5.03;61.78
70214;DHT22;60138;55.808;37.078;2024-03-02T15:03:56;4.97;61.92
70214;DHT22;60138;55.808;37.078;2024-03-02T15:06:22;4.93;62.15
70214;DHT22;60138;55.808;37.078;2024-03-02T15:08:47;4.91;62.47
70214;DHT22;60138;55.808;37.078;2024-03-02T15:11:13;4.84;62.33
70214;DHT22;60138;55.808;37.078;2024-03-02T15:13:40;4.79;62.34
70214;DHT22;60138;55.808;37.078;2024-03-02T15:16:06;4.74;62.31
70214;DHT22;60138;55.808;37.078;2024-03-02T15:18:31;4.67;62.43
70214;DHT22;60138;55.808;37.078;2024-03-02T15:20:57;4.63;62.64
70214;DHT22;60138;55.808;37.078;2024-03-02T15:23:23;4.60;62.78
70214;DHT22;60138;55.808;37.078;2024-03-02T15:25:49;4.60;62.70
70214;DHT22;60138;55.808;37.078;2024-03-02T15:28:14;4.56;62.80
70214;DHT22;60138;55.808;37.078;2024-03-02T15:30:40;4.54;62.98
70214;DHT22;60138;55.808;37.078;2024-03-02T15:33:06;4.56;63.02
70214;DHT22;60138;55.808;37.078;2024-03-02T15:35:31;4.53;63.01
70214;DHT22;60138;55.808;37.078;2024-03-02T15:37:57;4.48;63.12
70214;DHT22;60138;55.808;37.078;2024-03-02T15:40:23;4.44;63.10